createdAt,value
2018-11-22T12:17:04.372Z,30.90
2018-11-22T12:19:32.847Z,32.57
2018-11-22T12:22:01.281Z,32.83
2018-11-22T12:24:29.745Z,33.37
2018-11-22T12:26:58.564Z,33.33
2018-11-22T12:30:56.226Z,34.27
2018-11-22T12:33:40.928Z,32.20
2018-11-22T12:36:14.721Z,33.07
2018-11-22T12:38:44.636Z,35.03
2018-11-22T12:41:13.042Z,35.17
2018-11-22T12:43:42.005Z,37.20
2018-11-22T12:46:10.444Z,37.50
2018-11-22T12:48:39.562Z,37.27
2018-11-22T12:51:09.002Z,39.03
2018-11-22T12:53:36.567Z,36.43
2018-11-22T12:56:05.136Z,36.03
2018-11-22T12:58:33.624Z,36.47
2018-11-22T13:01:02.095Z,38.97
2018-11-22T13:03:30.528Z,36.07
2018-11-22T13:05:59.953Z,38.40
2018-11-22T13:08:28.386Z,37.83
2018-11-22T13:10:56.862Z,37.27
2018-11-22T13:13:25.443Z,36.33
2018-11-22T13:15:53.937Z,35.97
2018-11-22T13:18:23.046Z,36.27
2018-11-22T13:20:51.540Z,36.67
2018-11-22T13:23:19.987Z,37.73
2018-11-22T13:25:48.492Z,36.33
2018-11-22T13:28:16.978Z,37.57
2018-11-22T13:30:45.416Z,38.43
2018-11-22T13:33:13.871Z,37.30
2018-11-22T13:35:42.345Z,37.87
2018-11-22T13:38:10.804Z,36.73
2018-11-22T13:40:39.255Z,36.43
2018-11-22T13:43:07.690Z,36.33
2018-11-22T13:45:36.230Z,35.93
2018-11-22T13:48:04.676Z,34.63
2018-11-22T13:50:35.647Z,36.97
2018-11-22T13:53:05.286Z,36.27
2018-11-22T13:55:33.753Z,37.03
2018-11-22T13:58:02.144Z,38.40
2018-11-22T14:00:32.013Z,36.60
2018-11-22T14:03:02.006Z,35.50
2018-11-22T14:05:30.487Z,36.20
2018-11-22T14:07:59.006Z,34.83
2018-11-22T14:10:27.512Z,35.47
2018-11-22T14:12:55.958Z,36.70
2018-11-22T14:15:26.664Z,36.70
2018-11-22T14:17:56.742Z,36.23
2018-11-22T14:20:28.714Z,37.27
2018-11-22T14:22:57.190Z,38.80
2018-11-22T14:25:25.638Z,38.03
2018-11-22T14:27:54.156Z,38.63
2018-11-22T14:30:25.091Z,39.40
2018-11-22T14:32:53.903Z,38.73
2018-11-22T14:35:23.186Z,37.73
2018-11-22T14:37:51.641Z,37.83
2018-11-22T14:40:22.513Z,38.23
2018-11-22T14:42:51.852Z,37.50
2018-11-22T14:45:20.347Z,37.53
2018-11-22T14:47:49.806Z,36.90
2018-11-22T14:50:24.716Z,39.20
2018-11-22T14:52:57.849Z,36.93
2018-11-22T14:55:27.290Z,37.57
2018-11-22T14:57:56.430Z,36.43
2018-11-22T15:00:25.180Z,39.63
2018-11-22T15:02:53.424Z,40.63
2018-11-22T15:05:21.845Z,39.53
2018-11-22T15:07:50.330Z,40.27
2018-11-22T15:10:18.818Z,42.00
2018-11-22T15:12:48.499Z,42.13
2018-11-22T15:15:19.851Z,41.87
2018-11-22T15:17:48.310Z,42.47
2018-11-22T15:20:18.142Z,41.80
2018-11-22T15:22:47.504Z,42.20
2018-11-22T15:25:17.685Z,43.70
2018-11-22T15:27:46.300Z,41.93
2018-11-22T15:30:17.103Z,43.50
2018-11-22T15:32:46.146Z,41.73
2018-11-22T15:35:16.001Z,42.50
2018-11-22T15:37:44.518Z,42.07
2018-11-22T15:40:15.490Z,38.93
2018-11-22T15:42:44.568Z,35.63
2018-11-22T15:45:14.329Z,36.30
2018-11-22T15:47:42.852Z,34.10
2018-11-22T15:50:13.157Z,32.60
2018-11-22T15:52:41.981Z,34.37
2018-11-22T15:55:11.049Z,33.80
2018-11-22T15:57:40.158Z,31.17
2018-11-22T16:00:11.964Z,32.33
2018-11-22T16:02:40.431Z,32.63
2018-11-22T16:05:10.135Z,33.30
2018-11-22T16:07:38.627Z,32.30
2018-11-22T16:10:14.227Z,33.67
2018-11-22T16:12:43.034Z,31.47
2018-11-22T16:15:29.867Z,33.30
2018-11-22T16:17:58.452Z,33.17
2018-11-22T16:20:27.006Z,33.07
2018-11-22T16:22:55.469Z,32.80
2018-11-22T16:25:24.029Z,31.40
2018-11-22T16:27:53.462Z,31.80
2018-11-22T16:30:23.472Z,31.20
2018-11-22T16:32:52.246Z,31.17
2018-11-22T16:35:21.506Z,30.77
2018-11-22T16:37:50.039Z,30.33
2018-11-22T16:40:20.007Z,30.57
2018-11-22T16:42:49.440Z,30.40
2018-11-22T16:45:26.123Z,29.80
2018-11-22T16:47:54.827Z,32.47
2018-11-22T16:50:25.612Z,30.27
2018-11-22T16:52:54.489Z,29.37
2018-11-22T16:55:23.583Z,28.97
2018-11-22T16:57:52.996Z,29.30
2018-11-22T17:00:24.788Z,29.93
2018-11-22T17:02:54.421Z,32.80
2018-11-22T17:05:23.174Z,30.73
2018-11-22T17:07:51.774Z,29.63
2018-11-22T17:10:21.551Z,29.67
2018-11-22T17:12:52.270Z,30.67
2018-11-22T17:15:22.179Z,30.60
2018-11-22T17:17:51.054Z,30.30
2018-11-22T17:20:20.435Z,29.60
2018-11-22T17:22:49.665Z,29.60
2018-11-22T17:25:19.548Z,28.90
2018-11-22T17:27:49.643Z,26.80
2018-11-22T17:30:18.844Z,28.73
2018-11-22T17:32:47.338Z,29.30
2018-11-22T17:35:17.991Z,28.47
2018-11-22T17:37:46.465Z,29.07
2018-11-22T17:40:17.512Z,29.70
2018-11-22T17:42:46.009Z,30.90
2018-11-22T17:45:16.602Z,28.57
2018-11-22T17:47:45.161Z,27.67
2018-11-22T17:50:15.313Z,29.03
2018-11-22T17:52:44.157Z,28.03
2018-11-22T17:55:15.525Z,28.50
2018-11-22T17:57:44.044Z,28.50
2018-11-22T18:00:15.315Z,28.57
2018-11-22T18:02:44.776Z,28.70
2018-11-22T18:05:13.305Z,26.23
2018-11-22T18:07:41.838Z,29.67
2018-11-22T18:10:13.031Z,28.43
2018-11-22T18:12:42.792Z,27.77
2018-11-22T18:15:12.698Z,28.33
2018-11-22T18:17:41.310Z,26.73
2018-11-22T18:20:17.050Z,28.03
2018-11-22T18:22:46.153Z,28.23
2018-11-22T18:25:16.093Z,26.83
2018-11-22T18:27:44.613Z,27.10
2018-11-22T18:30:16.408Z,28.63
2018-11-22T18:32:46.236Z,26.77
2018-11-22T18:35:15.009Z,28.03
2018-11-22T18:37:43.456Z,28.40
2018-11-22T18:40:18.119Z,27.50
2018-11-22T18:42:47.304Z,28.20
2018-11-22T18:45:17.219Z,28.20
2018-11-22T18:47:46.560Z,25.93
2018-11-22T18:50:17.353Z,26.77
2018-11-22T18:52:46.158Z,28.03
2018-11-22T18:55:14.646Z,26.17
2018-11-22T18:57:43.437Z,27.90
2018-11-22T19:00:17.480Z,27.57
2018-11-22T19:02:45.981Z,26.83
2018-11-22T19:05:15.138Z,24.70
2018-11-22T19:07:44.838Z,27.30
2018-11-22T19:10:15.801Z,26.67
2018-11-22T19:12:45.075Z,26.07
2018-11-22T19:15:14.833Z,26.20
2018-11-22T19:17:43.272Z,25.90
2018-11-22T19:20:14.957Z,25.83
2018-11-22T19:22:44.803Z,24.83
2018-11-22T19:25:13.342Z,25.13
2018-11-22T19:27:42.245Z,27.33
2018-11-22T19:30:13.118Z,25.67
2018-11-22T19:32:41.627Z,25.37
2018-11-22T19:35:11.517Z,25.73
2018-11-22T19:37:40.221Z,25.73
2018-11-22T19:40:14.707Z,25.70
2018-11-22T19:42:44.331Z,25.27
2018-11-22T19:45:14.440Z,26.73
2018-11-22T19:47:42.898Z,25.33
2018-11-22T19:50:13.555Z,24.90
2018-11-22T19:52:42.422Z,25.57
2018-11-22T19:55:13.327Z,25.53
2018-11-22T19:57:42.931Z,26.37
2018-11-22T20:00:12.647Z,25.33
2018-11-22T20:02:41.747Z,25.57
2018-11-22T20:05:11.863Z,25.70
2018-11-22T20:07:41.939Z,26.07
2018-11-22T20:10:13.999Z,25.47
2018-11-22T20:12:42.619Z,23.60
2018-11-22T20:15:11.434Z,26.13
2018-11-22T20:17:39.970Z,24.77
2018-11-22T20:20:09.940Z,24.47
2018-11-22T20:22:38.774Z,26.53
2018-11-22T20:25:07.405Z,25.37
2018-11-22T20:27:36.208Z,24.43
2018-11-22T20:30:07.835Z,24.60
2018-11-22T20:32:38.878Z,23.03
2018-11-22T20:35:05.711Z,24.77
2018-11-22T20:37:34.190Z,25.10
2018-11-22T20:40:02.655Z,26.30
2018-11-22T20:42:31.127Z,25.53
2018-11-22T20:44:59.577Z,24.43
2018-11-22T20:47:28.106Z,24.63
2018-11-22T20:49:56.580Z,25.27
2018-11-22T20:52:25.248Z,25.67
2018-11-22T20:54:53.709Z,25.93
2018-11-22T20:57:22.187Z,25.80
2018-11-22T20:59:50.702Z,26.33
2018-11-22T21:02:19.289Z,26.17
2018-11-22T21:04:47.747Z,24.83
2018-11-22T21:07:16.213Z,24.73
2018-11-22T21:09:44.690Z,24.90
2018-11-22T21:12:13.158Z,24.73
2018-11-22T21:14:41.614Z,23.93
2018-11-22T21:17:10.066Z,23.50
2018-11-22T21:19:38.528Z,23.83
2018-11-22T21:22:07.945Z,24.73
2018-11-22T21:24:36.425Z,24.67
2018-11-22T21:27:05.395Z,23.07
2018-11-22T21:29:33.850Z,23.83
2018-11-22T21:32:02.310Z,24.60
2018-11-22T21:34:30.810Z,24.30
2018-11-22T21:36:59.262Z,23.60
2018-11-22T21:39:27.701Z,24.00
2018-11-22T21:41:56.173Z,24.80
2018-11-22T21:44:24.648Z,24.33
2018-11-22T21:46:53.130Z,25.00
2018-11-22T21:49:21.701Z,23.70
2018-11-22T21:51:50.272Z,25.23
2018-11-22T21:54:18.802Z,24.53
2018-11-22T21:56:48.065Z,24.87
2018-11-22T21:59:16.511Z,26.43
2018-11-22T22:01:44.971Z,25.87
2018-11-22T22:04:13.437Z,24.80
2018-11-22T22:06:41.881Z,24.87
2018-11-22T22:09:10.416Z,24.50
2018-11-22T22:11:38.920Z,25.73
2018-11-22T22:14:07.378Z,27.03
2018-11-22T22:16:36.414Z,25.70
2018-11-22T22:19:04.307Z,24.07
2018-11-22T22:21:32.749Z,25.70
2018-11-22T22:24:01.191Z,26.50
2018-11-22T22:26:29.703Z,27.23
2018-11-22T22:28:58.219Z,26.97
2018-11-22T22:31:27.452Z,25.27
2018-11-22T22:33:55.917Z,24.73
2018-11-22T22:36:24.389Z,24.97
2018-11-22T22:38:52.830Z,25.77
2018-11-22T22:41:21.343Z,23.70
2018-11-22T22:43:49.809Z,23.20
2018-11-22T22:46:18.245Z,24.20
2018-11-22T22:48:46.783Z,23.90
2018-11-22T22:51:15.197Z,25.33
2018-11-22T22:53:43.636Z,23.93
2018-11-22T22:56:12.300Z,23.43
2018-11-22T22:58:40.762Z,25.77
2018-11-22T23:01:09.212Z,26.73
2018-11-22T23:03:38.144Z,23.90
2018-11-22T23:06:08.353Z,24.80
2018-11-22T23:08:37.073Z,23.77
2018-11-22T23:11:06.509Z,24.30
2018-11-22T23:13:35.304Z,24.10
2018-11-22T23:16:04.503Z,24.63
2018-11-22T23:18:33.548Z,25.17
2018-11-22T23:21:02.219Z,24.47
2018-11-22T23:23:30.780Z,23.40
2018-11-22T23:25:59.250Z,23.80
2018-11-22T23:28:27.794Z,24.43
2018-11-22T23:30:56.352Z,23.60
2018-11-22T23:33:25.175Z,24.80
2018-11-22T23:35:53.595Z,25.57
2018-11-22T23:38:22.092Z,24.90
2018-11-22T23:40:50.580Z,24.93
2018-11-22T23:43:19.017Z,24.73
2018-11-22T23:45:47.490Z,23.43
2018-11-22T23:48:15.986Z,24.43
2018-11-22T23:51:01.196Z,24.60
2018-11-22T23:53:29.670Z,23.43
2018-11-22T23:55:58.151Z,23.63
2018-11-22T23:58:26.595Z,23.63
